Time;durP1;ratioP1;P1;durP2;ratioP2;P2;SDS_P1;SDS_P2;PMS_P1;PMS_P2;Temp;Humidity;BMP_temperature;BMP_pressure;BME280_temperature;BME280_humidity;BME280_pressure;Samples;Min_cycle;Max_cycle;Signal;HPM_P1;HPM_P2
2022/12/22 18:26:09;;;;;;;45.57;30.83;;;;;;;5.31;74.27;100300.33;1716453;81;22585;-69
2022/12/22 18:28:36;;;;;;;45.17;30.08;;;;;;;5.41;73.50;100287.33;1679652;85;21023;-71
2022/12/22 18:31:04;;;;;;;50.92;31.40;;;;;;;5.52;72.87;100282.55;1696961;82;21311;-70
2022/12/22 18:33:31;;;;;;;45.48;29.15;;;;;;;5.57;72.29;100279.22;1679497;84;21073;-71
2022/12/22 18:35:57;;;;;;;50.00;30.55;;;;;;;5.65;71.63;100285.48;1727378;83;21101;-70
2022/12/22 18:38:29;;;;;;;45.20;29.67;;;;;;;5.66;71.05;100284.47;1724885;83;20958;-70
2022/12/22 18:40:56;;;;;;;43.73;28.87;;;;;;;5.70;70.49;100290.11;1723611;83;21058;-69
2022/12/22 18:43:22;;;;;;;45.67;29.32;;;;;;;5.74;69.95;100293.91;1724743;83;21506;-71
2022/12/22 18:45:49;;;;;;;46.10;29.50;;;;;;;5.75;69.45;100294.98;1724765;83;20970;-70
2022/12/22 18:48:16;;;;;;;52.38;30.70;;;;;;;5.79;69.00;100287.38;1716267;83;21512;-70
2022/12/22 18:50:43;;;;;;;43.40;27.73;;;;;;;5.83;68.60;100289.88;1698043;84;21035;-70
2022/12/22 18:53:24;;;;;;;44.83;28.17;;;;;;;5.82;68.13;100293.05;1698402;84;21120;-70
2022/12/22 18:55:50;;;;;;;47.38;28.02;;;;;;;5.83;67.80;100284.58;1698112;84;21212;-69
2022/12/22 18:58:17;;;;;;;46.50;28.95;;;;;;;5.86;67.53;100283.59;1698336;84;20999;-70
2022/12/22 19:00:44;;;;;;;43.52;29.18;;;;;;;5.89;67.25;100290.27;1697949;84;20974;-71
2022/12/22 19:03:19;;;;;;;45.98;29.87;;;;;;;5.48;67.93;100288.55;1698274;84;21031;-70
2022/12/22 19:05:47;;;;;;;47.98;29.18;;;;;;;5.41;68.02;100280.70;1697020;84;20947;-69
2022/12/22 19:08:17;;;;;;;46.73;28.92;;;;;;;5.43;67.97;100287.09;1696940;83;21218;-69
2022/12/22 19:10:49;;;;;;;44.83;28.15;;;;;;;5.44;67.76;100282.91;1696667;84;21540;-70
2022/12/22 19:13:36;;;;;;;43.75;29.37;;;;;;;5.41;67.56;100286.00;1698299;84;20998;-70
2022/12/22 19:16:04;;;;;;;43.42;27.42;;;;;;;5.37;67.45;100286.19;1698478;84;21089;-72
2022/12/22 19:18:30;;;;;;;44.42;27.73;;;;;;;5.34;67.28;100283.47;1698199;84;21053;-71
2022/12/22 19:20:57;;;;;;;47.00;28.75;;;;;;;5.34;67.17;100285.31;1698049;84;21163;-70
2022/12/22 19:23:25;;;;;;;42.48;27.73;;;;;;;5.30;67.19;100282.32;1698340;84;21035;-70
2022/12/22 19:25:54;;;;;;;40.88;26.50;;;;;;;5.34;67.10;100286.64;1697572;83;21054;-70
2022/12/22 19:28:40;;;;;;;43.83;28.80;;;;;;;5.35;67.00;100285.07;1697639;83;21466;-70
2022/12/22 19:31:08;;;;;;;44.13;27.93;;;;;;;5.35;66.93;100283.75;1697629;83;21601;-71
2022/12/22 19:33:40;;;;;;;43.90;27.98;;;;;;;5.34;66.85;100280.82;1697559;83;20948;-70
2022/12/22 19:36:18;;;;;;;41.68;26.73;;;;;;;5.36;66.79;100280.08;1667729;83;20976;-70
2022/12/22 19:38:46;;;;;;;45.23;28.85;;;;;;;5.36;66.68;100274.79;1697476;83;20992;-70
2022/12/22 19:41:34;;;;;;;41.70;27.90;;;;;;;5.33;66.49;100278.38;1697834;83;21482;-70
2022/12/22 19:44:01;;;;;;;44.95;28.65;;;;;;;5.31;66.37;100272.53;1696865;83;21162;-70
2022/12/22 19:46:31;;;;;;;40.98;25.62;;;;;;;5.30;66.39;100269.60;1697489;82;22026;-70
2022/12/22 19:48:58;;;;;;;37.80;24.20;;;;;;;5.30;66.30;100276.22;1697571;83;21018;-70
2022/12/22 19:51:24;;;;;;;45.55;28.70;;;;;;;5.29;66.15;100274.06;1697535;83;21093;-70
2022/12/22 19:53:51;;;;;;;44.45;27.30;;;;;;;5.25;66.11;100274.77;1697685;83;21584;-70
2022/12/22 19:56:25;;;;;;;44.13;27.30;;;;;;;5.23;66.14;100268.88;1697534;83;21089;-70
2022/12/22 19:58:52;;;;;;;42.73;27.27;;;;;;;5.20;66.04;100274.14;1697457;83;21224;-70
2022/12/22 20:01:20;;;;;;;45.25;28.62;;;;;;;5.16;65.95;100275.61;1697462;83;21077;-70
2022/12/22 20:03:48;;;;;;;42.13;27.48;;;;;;;5.14;66.06;100269.75;1697554;83;21124;-70
2022/12/22 20:06:16;;;;;;;45.78;29.37;;;;;;;5.14;66.05;100271.08;1697449;83;21030;-70
2022/12/22 20:08:44;;;;;;;45.15;27.62;;;;;;;5.14;66.01;100269.75;1692333;84;21073;-69
2022/12/22 20:11:16;;;;;;;43.13;27.25;;;;;;;5.11;66.03;100272.84;1697253;83;21870;-70
2022/12/22 20:13:42;;;;;;;;;;;;;;;5.14;65.99;100269.23;1685140;83;20999;-70
2022/12/22 20:16:12;;;;;;;43.65;26.25;;;;;;;5.12;66.00;100264.66;1667577;84;20179;-69
2022/12/22 20:18:40;;;;;;;43.63;27.60;;;;;;;5.14;66.01;100263.13;1669897;84;21059;-70
2022/12/22 20:21:14;;;;;;;42.40;26.62;;;;;;;5.15;65.86;100266.06;1700636;83;21704;-70
2022/12/22 20:23:41;;;;;;;43.02;25.70;;;;;;;5.08;65.90;100251.60;1691656;83;21199;-70
2022/12/22 20:26:14;;;;;;;38.80;24.00;;;;;;;5.07;65.95;100248.67;1660319;84;21054;-71
2022/12/22 20:28:41;;;;;;;43.30;27.80;;;;;;;5.08;65.93;100251.60;1663846;86;21161;-69
2022/12/22 20:31:10;;;;;;;42.33;27.10;;;;;;;5.09;65.87;100250.55;1692958;83;21011;-69
2022/12/22 20:33:37;;;;;;;42.03;26.10;;;;;;;5.07;65.88;100241.25;1666976;84;21075;-69
2022/12/22 20:36:15;;;;;;;43.00;26.87;;;;;;;5.08;65.94;100249.48;1695291;83;21430;-70
2022/12/22 20:38:42;;;;;;;42.15;27.07;;;;;;;5.09;65.92;100242.61;1695242;83;21030;-69
2022/12/22 20:41:09;;;;;;;41.37;26.80;;;;;;;5.09;65.89;100237.32;1695229;83;21352;-69
2022/12/22 20:43:37;;;;;;;46.20;27.58;;;;;;;5.10;65.84;100238.95;1695235;83;21293;-69
2022/12/22 20:46:23;;;;;;;42.08;27.17;;;;;;;5.11;65.77;100235.78;1695129;83;20998;-69
2022/12/22 20:48:59;;;;;;;41.48;26.20;;;;;;;5.12;65.67;100236.06;1695130;83;21215;-70
2022/12/22 20:51:28;;;;;;;41.53;26.80;;;;;;;5.10;65.65;100238.13;1667679;84;21046;-70
2022/12/22 20:53:56;;;;;;;38.95;24.98;;;;;;;5.08;65.66;100233.59;1695531;83;21022;-69
2022/12/22 20:56:31;;;;;;;42.80;26.30;;;;;;;5.09;65.62;100236.52;1695235;83;21010;-70
2022/12/22 20:59:00;;;;;;;43.75;25.52;;;;;;;5.09;65.58;100236.00;1695154;83;21041;-70
2022/12/22 21:01:27;;;;;;;45.00;26.48;;;;;;;5.08;65.53;100233.07;1695375;83;21121;-70
2022/12/22 21:03:54;;;;;;;39.63;24.87;;;;;;;5.07;65.50;100231.99;1695352;83;21062;-70
2022/12/22 21:06:25;;;;;;;39.65;25.27;;;;;;;5.07;65.45;100231.99;1692500;83;21027;-70
2022/12/22 21:08:54;;;;;;;41.80;25.02;;;;;;;5.05;65.46;100227.43;1690424;84;21046;-70
2022/12/22 21:11:21;;;;;;;41.77;25.85;;;;;;;5.06;65.47;100231.68;1695249;84;20955;-69
2022/12/22 21:13:48;;;;;;;40.75;26.30;;;;;;;5.03;65.46;100223.67;1695224;84;21636;-69
2022/12/22 21:16:19;;;;;;;44.00;25.35;;;;;;;5.01;65.46;100224.44;1695088;84;21050;-70
2022/12/22 21:18:45;;;;;;;39.90;25.57;;;;;;;5.00;65.42;100222.83;1695226;84;20959;-70
2022/12/22 21:21:12;;;;;;;38.08;24.67;;;;;;;4.98;65.33;100220.12;1695115;84;21023;-70
2022/12/22 21:23:39;;;;;;;40.88;24.57;;;;;;;4.95;65.31;100216.08;1695452;84;21054;-69
2022/12/22 21:26:35;;;;;;;38.70;26.05;;;;;;;4.93;65.36;100208.35;1695115;84;21214;-70
2022/12/22 21:29:06;;;;;;;37.20;23.75;;;;;;;4.92;65.37;100206.75;1694817;84;21054;-69
2022/12/22 21:31:32;;;;;;;40.17;26.02;;;;;;;4.90;65.34;100211.97;1695214;84;21034;-69
2022/12/22 21:33:59;;;;;;;36.23;23.30;;;;;;;4.85;65.34;100215.84;1695221;84;21818;-69
2022/12/22 21:36:28;;;;;;;39.60;25.52;;;;;;;4.85;65.40;100207.38;1695276;84;20942;-69
2022/12/22 21:38:57;;;;;;;40.75;25.72;;;;;;;4.86;65.37;100218.23;1695424;84;21134;-69
2022/12/22 21:44:12;;;;;;;41.88;25.60;;;;;;;4.85;65.32;100221.93;1657226;86;21109;-68
2022/12/22 21:46:41;;;;;;;39.53;25.12;;;;;;;4.82;65.28;100222.38;1632349;87;21025;-69
2022/12/22 21:49:23;;;;;;;39.27;24.82;;;;;;;4.81;65.31;100216.81;1661509;85;21076;-69
2022/12/22 21:51:51;;;;;;;38.75;24.45;;;;;;;4.82;65.37;100225.03;1697288;83;21560;-69
2022/12/22 21:54:19;;;;;;;36.20;23.12;;;;;;;4.56;65.76;100220.93;1684636;85;21059;-70
2022/12/22 21:56:46;;;;;;;40.00;24.18;;;;;;;4.49;66.37;100219.42;1667670;84;21035;-70
2022/12/22 21:59:13;;;;;;;41.95;25.48;;;;;;;4.78;65.63;100225.20;1697000;83;21101;-70
2022/12/22 22:01:40;;;;;;;36.33;23.85;;;;;;;4.81;65.44;100222.63;1684839;85;21510;-68
2022/12/22 22:04:07;;;;;;;35.60;24.15;;;;;;;4.84;65.33;100234.88;1667360;84;22027;-69
2022/12/22 22:06:34;;;;;;;40.15;25.40;;;;;;;4.84;65.24;100223.49;1689395;85;21020;-71
2022/12/22 22:09:03;;;;;;;38.48;24.18;;;;;;;4.81;65.29;100228.72;1694614;83;21644;-69
2022/12/22 22:11:29;;;;;;;35.33;23.70;;;;;;;4.85;65.20;100232.52;1667544;83;21054;-70
2022/12/22 22:13:56;;;;;;;35.95;23.70;;;;;;;4.83;65.11;100221.34;1665082;85;21070;-70
2022/12/22 22:16:25;;;;;;;35.80;23.00;;;;;;;4.84;65.09;100213.71;1697425;83;20996;-70
2022/12/22 22:18:52;;;;;;;40.05;24.27;;;;;;;4.86;65.00;100197.07;1697450;83;21078;-69
2022/12/22 22:21:19;;;;;;;34.30;22.22;;;;;;;4.86;64.92;100193.63;1697535;82;21086;-68
2022/12/22 22:23:46;;;;;;;35.38;22.30;;;;;;;4.93;64.75;100217.61;1697457;82;20988;-70
2022/12/22 22:26:13;;;;;;;35.00;21.50;;;;;;;4.96;64.49;100207.09;1697445;83;21514;-69
2022/12/22 22:28:40;;;;;;;34.05;22.62;;;;;;;4.83;64.68;100198.05;1697527;83;21648;-70
2022/12/22 22:31:09;;;;;;;35.73;22.75;;;;;;;4.78;64.74;100197.94;1697428;83;21122;-70
2022/12/22 22:33:37;;;;;;;34.18;21.73;;;;;;;4.82;64.61;100201.73;1697576;83;21107;-69
2022/12/22 22:36:07;;;;;;;34.50;22.25;;;;;;;4.77;64.62;100195.81;1697227;83;21019;-70
2022/12/22 22:38:34;;;;;;;35.13;21.42;;;;;;;4.74;64.70;100197.59;1697798;83;21054;-70
2022/12/22 22:41:01;;;;;;;34.05;21.55;;;;;;;4.72;64.71;100193.03;1697366;83;21787;-69
2022/12/22 22:43:28;;;;;;;36.08;21.30;;;;;;;4.73;64.77;100197.80;1697389;83;20979;-69
2022/12/22 22:45:54;;;;;;;35.30;20.97;;;;;;;4.70;64.72;100186.66;1697247;83;21129;-71
2022/12/22 22:48:22;;;;;;;34.48;20.50;;;;;;;4.71;64.80;100187.45;1697612;83;21537;-70
2022/12/22 22:50:49;;;;;;;30.15;19.87;;;;;;;4.70;64.79;100181.86;1697414;83;21011;-70
2022/12/22 22:53:15;;;;;;;32.90;20.08;;;;;;;4.70;64.80;100181.86;1697677;83;21205;-71
2022/12/22 22:55:42;;;;;;;30.65;19.98;;;;;;;4.63;64.89;100183.28;1697201;83;21006;-70
2022/12/22 22:58:13;;;;;;;32.28;20.52;;;;;;;4.69;64.82;100182.38;1697543;83;21066;-70
2022/12/22 23:00:38;;;;;;;30.48;20.00;;;;;;;4.69;64.90;100178.92;1696576;82;21001;-70
2022/12/22 23:03:05;;;;;;;30.43;20.02;;;;;;;4.68;64.91;100164.91;1697506;83;21252;-69
2022/12/22 23:05:32;;;;;;;32.00;19.90;;;;;;;4.71;64.92;100163.64;1684628;85;21805;-69
2022/12/22 23:07:58;;;;;;;30.45;19.05;;;;;;;4.70;64.93;100162.02;1637464;87;21031;-70
2022/12/22 23:10:26;;;;;;;27.65;18.85;;;;;;;4.71;64.97;100164.97;1699524;83;20995;-70
2022/12/22 23:12:54;;;;;;;29.27;19.50;;;;;;;4.69;64.99;100161.21;1695598;84;21497;-70
2022/12/22 23:15:20;;;;;;;30.55;19.62;;;;;;;4.66;64.98;100162.19;1695270;84;21034;-70
2022/12/22 23:17:47;;;;;;;30.72;19.67;;;;;;;4.65;65.05;100161.91;1695605;84;21029;-70
2022/12/22 23:20:14;;;;;;;31.02;20.10;;;;;;;4.67;65.11;100157.17;1695120;83;21470;-70
2022/12/22 23:22:40;;;;;;;29.05;19.02;;;;;;;4.68;65.16;100150.88;1695622;83;20959;-70
2022/12/22 23:25:08;;;;;;;30.43;19.52;;;;;;;4.71;65.25;100154.39;1695117;83;20954;-70
2022/12/22 23:27:34;;;;;;;29.55;19.15;;;;;;;4.75;65.27;100152.09;1695529;83;21505;-70
2022/12/22 23:30:01;;;;;;;28.67;19.27;;;;;;;4.78;65.24;100147.67;1695181;83;21487;-70
2022/12/22 23:32:29;;;;;;;29.65;19.45;;;;;;;4.79;65.19;100154.03;1696581;83;21112;-70
2022/12/22 23:34:57;;;;;;;29.72;19.70;;;;;;;4.79;65.14;100155.36;1703462;83;21014;-70
2022/12/22 23:37:25;;;;;;;30.10;19.07;;;;;;;4.78;65.13;100157.73;1709567;82;21015;-69
2022/12/22 23:40:01;;;;;;;30.29;19.59;;;;;;;4.74;65.13;100149.97;1457826;82;10000557;-70
2022/12/22 23:42:27;;;;;;;29.27;19.50;;;;;;;4.75;65.24;100152.89;1680410;84;20936;-70
2022/12/22 23:44:55;;;;;;;30.93;19.93;;;;;;;4.74;65.24;100144.67;1671512;84;20911;-70
2022/12/22 23:47:22;;;;;;;29.98;20.12;;;;;;;4.70;65.24;100141.68;1663611;84;22199;-69
2022/12/22 23:49:49;;;;;;;31.30;20.32;;;;;;;4.69;65.27;100147.19;1699574;82;22171;-70
2022/12/22 23:52:15;;;;;;;29.87;19.62;;;;;;;4.66;65.29;100144.98;1675828;83;20969;-70
2022/12/22 23:54:42;;;;;;;30.75;20.10;;;;;;;4.65;65.32;100148.68;1694646;83;21019;-69
2022/12/22 23:57:09;;;;;;;28.73;19.48;;;;;;;4.63;65.37;100138.31;1701767;83;21076;-70
2022/12/22 23:59:36;;;;;;;30.15;20.25;;;;;;;4.64;65.40;100135.14;1686580;83;21046;-69
